createdAt,value
2023-03-10T07:51:29.064Z,1.55
2023-03-10T07:53:56.890Z,1.30
2023-03-10T07:56:24.849Z,1.20
2023-03-10T07:58:52.737Z,1.35
2023-03-10T08:01:22.449Z,1.27
2023-03-10T08:03:50.503Z,0.98
2023-03-10T08:06:20.366Z,1.63
2023-03-10T08:08:49.555Z,1.02
2023-03-10T08:11:17.713Z,1.50
2023-03-10T08:13:47.372Z,1.10
2023-03-10T08:16:15.929Z,1.20
2023-03-10T08:18:44.227Z,1.45
2023-03-10T08:21:12.341Z,1.20
2023-03-10T08:23:40.456Z,1.20
2023-03-10T08:26:14.125Z,1.20
2023-03-10T08:28:42.570Z,1.40
2023-03-10T08:31:12.439Z,1.00
2023-03-10T08:33:41.017Z,1.20
2023-03-10T08:36:12.172Z,1.20
2023-03-10T08:38:41.110Z,1.17
2023-03-10T08:41:16.131Z,1.75
2023-03-10T08:43:46.552Z,1.27
2023-03-10T08:46:15.779Z,0.93
2023-03-10T08:48:43.756Z,1.08
2023-03-10T08:51:15.571Z,1.05
2023-03-10T08:56:14.318Z,1.30
2023-03-10T08:58:42.980Z,1.02
2023-03-10T09:01:12.112Z,1.00
2023-03-10T09:03:41.588Z,1.20
2023-03-10T09:06:09.952Z,1.27
2023-03-10T09:08:39.604Z,1.42
2023-03-10T09:11:07.929Z,1.15
2023-03-10T09:13:37.134Z,1.25
2023-03-10T09:16:05.215Z,1.40
2023-03-10T09:18:33.049Z,1.45
2023-03-10T09:21:00.892Z,1.08
2023-03-10T09:23:29.346Z,1.20
2023-03-10T09:25:57.203Z,1.00
2023-03-10T09:28:25.408Z,1.25
2023-03-10T09:30:54.988Z,1.35
2023-03-10T09:33:24.165Z,1.40
2023-03-10T09:36:05.928Z,1.40
2023-03-10T09:41:14.912Z,1.10
2023-03-10T09:43:50.436Z,1.48
2023-03-10T09:46:25.592Z,1.42
2023-03-10T09:49:00.105Z,1.30
2023-03-10T09:51:29.552Z,1.23
2023-03-10T09:54:15.706Z,1.40
2023-03-10T09:56:43.597Z,1.30
2023-03-10T09:59:16.046Z,1.40
2023-03-10T10:01:48.286Z,1.77
2023-03-10T10:06:49.127Z,1.30
2023-03-10T10:09:26.026Z,1.20
2023-03-10T10:11:53.873Z,1.52
2023-03-10T10:14:31.806Z,1.20
2023-03-10T10:17:08.451Z,1.27
2023-03-10T10:19:39.402Z,0.80
2023-03-10T10:22:15.820Z,0.50
2023-03-10T10:24:59.535Z,0.40
2023-03-10T10:27:27.453Z,0.45
2023-03-10T10:29:55.339Z,0.60
2023-03-10T10:32:24.607Z,0.20
2023-03-10T10:34:52.710Z,0.30
2023-03-10T10:37:31.001Z,0.38
2023-03-10T10:40:00.280Z,0.20
2023-03-10T10:42:31.068Z,0.40
2023-03-10T10:45:00.267Z,0.45
2023-03-10T10:47:32.184Z,0.15
2023-03-10T10:50:18.189Z,0.20
2023-03-10T10:52:49.869Z,0.25
2023-03-10T10:55:28.179Z,0.17
2023-03-10T10:58:01.330Z,0.17
2023-03-10T11:00:32.227Z,0.10
2023-03-10T11:03:01.715Z,0.25
2023-03-10T11:05:35.971Z,0.20
2023-03-10T11:08:19.880Z,0.20
2023-03-10T11:10:54.279Z,0.45
2023-03-10T11:13:27.222Z,0.13
2023-03-10T11:16:04.226Z,0.13
2023-03-10T11:18:37.512Z,0.40
2023-03-10T11:21:12.677Z,0.28
2023-03-10T11:23:46.391Z,0.40
2023-03-10T11:26:22.181Z,0.30
2023-03-10T11:28:54.750Z,0.30
2023-03-10T11:31:34.294Z,0.40
2023-03-10T11:34:18.733Z,0.40
2023-03-10T11:36:56.776Z,0.38
2023-03-10T11:39:35.621Z,0.30
2023-03-10T11:42:11.242Z,0.35
2023-03-10T11:44:42.467Z,0.28
2023-03-10T11:47:20.319Z,0.60
2023-03-10T11:49:58.599Z,0.38
2023-03-10T11:52:29.488Z,0.30
2023-03-10T11:55:05.714Z,0.50
2023-03-10T11:57:38.885Z,0.28
2023-03-10T12:00:16.273Z,0.47
2023-03-10T12:02:55.805Z,0.40
2023-03-10T12:05:26.328Z,0.50
2023-03-10T12:07:59.106Z,0.40
2023-03-10T12:10:26.923Z,0.50
2023-03-10T12:12:55.330Z,0.77
2023-03-10T12:15:26.078Z,0.20
2023-03-10T12:17:54.833Z,0.38
2023-03-10T12:20:29.216Z,0.30
2023-03-10T12:22:59.115Z,0.28
2023-03-10T12:25:46.943Z,0.45
2023-03-10T12:28:26.245Z,0.10
2023-03-10T12:30:57.273Z,0.20
2023-03-10T12:33:42.891Z,0.50
2023-03-10T12:36:38.052Z,0.40
2023-03-10T12:39:37.848Z,0.63
2023-03-10T12:42:26.460Z,0.60
2023-03-10T12:45:08.086Z,0.30
2023-03-10T12:47:53.871Z,0.50
2023-03-10T12:50:46.724Z,0.20
2023-03-10T12:53:30.094Z,0.20
2023-03-10T12:56:24.817Z,0.22
2023-03-10T12:58:59.446Z,0.35
2023-03-10T13:01:35.045Z,0.38
2023-03-10T13:04:07.108Z,0.38
2023-03-10T13:06:41.689Z,0.40
2023-03-10T13:09:23.284Z,0.30
2023-03-10T13:11:55.458Z,0.20
2023-03-10T13:16:57.985Z,0.20
2023-03-10T13:19:27.985Z,0.20
2023-03-10T13:21:56.430Z,0.38
2023-03-10T13:24:28.962Z,0.30
2023-03-10T13:27:07.816Z,0.28
2023-03-10T13:29:35.745Z,0.20
2023-03-10T13:32:03.935Z,0.30
2023-03-10T13:34:33.826Z,0.25
2023-03-10T13:37:06.180Z,0.40
2023-03-10T13:42:04.985Z,0.30
2023-03-10T13:44:38.461Z,0.30
2023-03-10T13:47:15.552Z,0.40
2023-03-10T13:49:47.650Z,0.25
2023-03-10T13:52:18.645Z,0.10
2023-03-10T13:54:47.912Z,0.10
2023-03-10T13:57:21.428Z,0.10
2023-03-10T13:59:50.308Z,0.15
2023-03-10T14:02:20.371Z,0.20
2023-03-10T14:04:49.540Z,0.32
2023-03-10T14:07:20.475Z,0.10
2023-03-10T14:10:10.547Z,0.20
2023-03-10T14:12:40.826Z,0.13
2023-03-10T14:15:13.410Z,0.10
2023-03-10T14:17:42.670Z,0.20
2023-03-10T14:20:11.995Z,0.10
2023-03-10T14:22:43.195Z,0.20
2023-03-10T14:25:17.862Z,0.10
2023-03-10T14:27:47.421Z,0.10
2023-03-10T14:30:22.432Z,0.10
2023-03-10T14:32:50.704Z,0.10
2023-03-10T14:35:21.290Z,0.30
2023-03-10T14:37:49.639Z,0.10
2023-03-10T14:40:20.799Z,0.13
2023-03-10T14:42:50.829Z,0.10
2023-03-10T14:45:28.215Z,0.20
2023-03-10T14:47:58.375Z,0.10
2023-03-10T14:50:27.375Z,0.25
2023-03-10T14:52:55.392Z,0.15
2023-03-10T14:55:25.003Z,0.20
2023-03-10T14:57:59.062Z,0.05
2023-03-10T15:00:27.286Z,0.30
2023-03-10T15:02:55.355Z,0.10
2023-03-10T15:05:31.956Z,0.25
2023-03-10T15:08:06.377Z,0.10
2023-03-10T15:10:38.669Z,0.10
2023-03-10T15:15:38.989Z,0.00
2023-03-10T15:18:07.076Z,0.17
2023-03-10T15:20:34.869Z,0.10
2023-03-10T15:23:05.635Z,0.20
2023-03-10T15:25:34.839Z,0.17
2023-03-10T15:28:03.160Z,0.20
2023-03-10T15:30:33.233Z,0.10
2023-03-10T15:33:01.218Z,0.08
2023-03-10T15:35:29.626Z,0.20
2023-03-10T15:37:58.187Z,0.20
2023-03-10T15:40:28.299Z,0.10
2023-03-10T15:42:58.311Z,0.10
2023-03-10T15:45:27.602Z,0.20
2023-03-10T15:47:55.447Z,0.10
2023-03-10T15:50:23.772Z,0.20
2023-03-10T15:52:53.601Z,0.20
2023-03-10T15:55:21.813Z,0.10
2023-03-10T15:57:50.132Z,0.10
2023-03-10T16:00:23.073Z,0.25
2023-03-10T16:02:51.649Z,0.20
2023-03-10T16:05:20.444Z,0.10
2023-03-10T16:07:48.656Z,0.60
2023-03-10T16:10:18.220Z,0.22
2023-03-10T16:12:46.540Z,0.20
2023-03-10T16:15:17.621Z,0.10
2023-03-10T16:17:47.441Z,0.20
2023-03-10T16:20:18.945Z,0.55
2023-03-10T16:22:46.886Z,0.25
2023-03-10T16:25:16.636Z,0.40
2023-03-10T16:27:45.734Z,0.47
2023-03-10T16:30:15.473Z,0.52
2023-03-10T16:32:47.039Z,0.60
2023-03-10T16:35:15.784Z,0.30
2023-03-10T16:37:44.514Z,0.50
2023-03-10T16:40:13.572Z,0.40
2023-03-10T16:42:45.393Z,0.52
2023-03-10T16:45:13.587Z,0.30
2023-03-10T16:47:43.838Z,0.45
2023-03-10T16:50:14.147Z,0.28
2023-03-10T16:52:43.586Z,0.20
2023-03-10T16:55:16.962Z,0.40
